Terminal Aerodrome Forecast
Issued by NWS Cleveland, OH

Home | Current Version | Previous Version | Graphics & Text | Print | Product List | Glossary Off
Versions: 1 2 3 4 5 6 7 8 9 10 11 12 13 14 15 16 17 18 19 20 21 22 23 24 25 26 27 28 29 30 31 32

000
FTUS41 KCLE 061100
TAFCLE
TAF
KCLE 061137Z 0612/0718 20006KT P6SM SKC
     FM061600 21012KT P6SM SCT030 BKN200
     FM061800 21012G20KT P6SM BKN030
     FM070000 21010KT P6SM BKN050 OVC120
     FM070900 21012KT P6SM OVC025=

USA.gov is the U.S. government's official web portal to all federal, state and local government web resources and services.